createdAt,value
2018-09-02T00:01:20.332Z,20.00
2018-09-02T00:03:48.878Z,20.47
2018-09-02T00:06:17.556Z,21.70
2018-09-02T00:08:46.102Z,24.23
2018-09-02T00:11:14.608Z,20.47
2018-09-02T00:13:43.226Z,22.60
2018-09-02T00:16:12.350Z,25.27
2018-09-02T00:18:41.459Z,26.30
2018-09-02T00:21:10.212Z,22.73
2018-09-02T00:23:38.785Z,24.33
2018-09-02T00:26:07.300Z,25.83
2018-09-02T00:28:36.957Z,25.27
2018-09-02T00:31:06.061Z,24.27
2018-09-02T00:33:34.661Z,26.43
2018-09-02T00:36:03.566Z,26.27
2018-09-02T00:38:32.294Z,27.93
2018-09-02T00:41:01.384Z,24.50
2018-09-02T00:43:30.013Z,22.90
2018-09-02T00:45:58.558Z,23.77
2018-09-02T00:48:27.502Z,27.53
2018-09-02T00:50:56.597Z,27.60
2018-09-02T00:53:27.814Z,25.90
2018-09-02T00:55:57.376Z,26.30
2018-09-02T00:58:25.875Z,26.73
2018-09-02T01:00:54.407Z,25.80
2018-09-02T01:03:23.042Z,28.57
2018-09-02T01:05:52.318Z,29.33
2018-09-02T01:08:21.050Z,26.27
2018-09-02T01:10:50.263Z,26.50
2018-09-02T01:13:19.200Z,26.73
2018-09-02T01:15:48.408Z,26.17
2018-09-02T01:18:17.346Z,29.67
2018-09-02T01:20:46.027Z,26.80
2018-09-02T01:23:14.599Z,28.67
2018-09-02T01:25:43.102Z,27.10
2018-09-02T01:28:12.090Z,25.50
2018-09-02T01:30:40.938Z,27.63
2018-09-02T01:33:10.065Z,29.20
2018-09-02T01:35:39.339Z,29.47
2018-09-02T01:38:07.916Z,29.00
2018-09-02T01:40:36.623Z,28.30
2018-09-02T01:43:05.937Z,30.50
2018-09-02T01:45:34.609Z,29.83
2018-09-02T01:48:04.247Z,31.23
2018-09-02T01:50:32.806Z,29.60
2018-09-02T01:53:01.379Z,30.03
2018-09-02T01:55:29.864Z,29.70
2018-09-02T01:57:58.551Z,32.27
2018-09-02T02:00:27.155Z,28.43
2018-09-02T02:02:55.878Z,28.10
2018-09-02T02:05:24.528Z,28.73
2018-09-02T02:07:54.272Z,29.90
2018-09-02T02:10:22.752Z,29.00
2018-09-02T02:12:51.520Z,29.87
2018-09-02T02:15:20.117Z,29.13
2018-09-02T02:17:48.594Z,30.30
2018-09-02T02:20:17.302Z,27.87
2018-09-02T02:22:45.851Z,27.17
2018-09-02T02:25:14.531Z,25.17
2018-09-02T02:27:43.442Z,24.17
2018-09-02T02:30:12.039Z,25.73
2018-09-02T02:32:40.940Z,25.87
2018-09-02T02:35:09.611Z,25.37
2018-09-02T02:37:38.185Z,27.53
2018-09-02T02:40:06.760Z,26.07
2018-09-02T02:42:35.412Z,29.70
2018-09-02T02:45:04.418Z,27.97
2018-09-02T02:47:33.882Z,28.90
2018-09-02T02:50:02.375Z,30.13
2018-09-02T02:52:36.182Z,27.37
2018-09-02T02:55:04.786Z,27.57
2018-09-02T02:57:33.336Z,28.20
2018-09-02T03:00:01.989Z,29.20
2018-09-02T03:02:30.503Z,26.50
2018-09-02T03:04:59.045Z,24.60
2018-09-02T03:07:27.640Z,26.80
2018-09-02T03:09:57.034Z,27.30
2018-09-02T03:12:25.546Z,24.93
2018-09-02T03:14:54.056Z,24.63
2018-09-02T03:17:23.150Z,22.23
2018-09-02T03:19:51.739Z,25.53
2018-09-02T03:22:20.262Z,23.03
2018-09-02T03:24:49.042Z,25.53
2018-09-02T03:27:17.563Z,23.53
2018-09-02T03:29:46.820Z,23.97
2018-09-02T03:32:15.377Z,26.87
2018-09-02T03:34:43.874Z,25.57
2018-09-02T03:37:13.090Z,25.90
2018-09-02T03:39:41.873Z,24.00
2018-09-02T03:42:10.453Z,24.57
2018-09-02T03:44:38.967Z,24.00
2018-09-02T03:47:07.789Z,21.90
2018-09-02T03:49:36.393Z,23.27
2018-09-02T03:52:04.939Z,22.40
2018-09-02T03:54:33.441Z,21.93
2018-09-02T03:57:02.210Z,18.97
2018-09-02T03:59:31.928Z,20.40
2018-09-02T04:02:01.226Z,20.10
2018-09-02T04:04:30.392Z,22.23
2018-09-02T04:06:58.906Z,20.07
2018-09-02T04:09:27.592Z,21.43
2018-09-02T04:11:56.099Z,21.77
2018-09-02T04:14:24.616Z,21.10
2018-09-02T04:16:53.207Z,22.30
2018-09-02T04:19:21.721Z,20.77
2018-09-02T04:21:50.215Z,22.17
2018-09-02T04:24:19.377Z,20.20
2018-09-02T04:26:47.827Z,22.00
2018-09-02T04:29:16.324Z,21.40
2018-09-02T04:31:46.179Z,21.03
2018-09-02T04:34:14.696Z,19.87
2018-09-02T04:36:43.233Z,20.63
2018-09-02T04:39:11.753Z,20.77
2018-09-02T04:41:40.302Z,18.93
2018-09-02T04:44:08.814Z,20.33
2018-09-02T04:46:37.388Z,16.70
2018-09-02T04:49:06.210Z,19.57
2018-09-02T04:51:34.914Z,19.37
2018-09-02T04:54:03.898Z,17.37
2018-09-02T04:56:32.380Z,21.20
2018-09-02T04:59:00.988Z,21.17
2018-09-02T05:01:29.729Z,21.57
2018-09-02T05:03:59.319Z,19.53
2018-09-02T05:06:27.904Z,20.50
2018-09-02T05:08:56.416Z,20.80
2018-09-02T05:11:25.217Z,19.63
2018-09-02T05:13:53.884Z,19.17
2018-09-02T05:16:22.768Z,19.60
2018-09-02T05:18:52.208Z,18.63
2018-09-02T05:21:20.701Z,21.03
2018-09-02T05:23:49.200Z,18.43
2018-09-02T05:26:17.874Z,19.77
2018-09-02T05:28:46.716Z,19.20
2018-09-02T05:31:15.413Z,18.43
2018-09-02T05:33:44.131Z,18.53
2018-09-02T05:36:12.886Z,18.67
2018-09-02T05:38:41.537Z,16.10
2018-09-02T05:41:10.137Z,18.50
2018-09-02T05:43:38.918Z,18.90
2018-09-02T05:46:07.414Z,17.97
2018-09-02T05:48:36.150Z,18.57
2018-09-02T05:51:05.247Z,16.83
2018-09-02T05:53:34.068Z,16.70
2018-09-02T05:56:02.621Z,17.23
2018-09-02T05:58:31.108Z,17.17
2018-09-02T06:01:00.239Z,17.33
2018-09-02T06:03:28.738Z,17.17
2018-09-02T06:05:57.308Z,16.37
2018-09-02T06:08:26.345Z,15.00
2018-09-02T06:10:54.998Z,20.63
2018-09-02T06:13:23.656Z,15.60
2018-09-02T06:15:52.275Z,15.13
2018-09-02T06:18:21.023Z,16.77
2018-09-02T06:20:49.574Z,15.43
2018-09-02T06:23:18.354Z,16.20
2018-09-02T06:25:47.692Z,15.20
2018-09-02T06:28:16.376Z,14.73
2018-09-02T06:30:45.068Z,13.20
2018-09-02T06:33:13.981Z,16.10
2018-09-02T06:35:42.634Z,14.03
2018-09-02T06:38:11.178Z,14.77
2018-09-02T06:40:39.795Z,14.37
2018-09-02T06:43:08.481Z,12.83
2018-09-02T06:45:37.377Z,12.93
2018-09-02T06:48:06.119Z,14.97
2018-09-02T06:50:34.647Z,11.33
2018-09-02T06:53:03.375Z,14.77
2018-09-02T06:55:32.311Z,13.83
2018-09-02T06:58:00.794Z,13.90
2018-09-02T07:00:30.315Z,13.70
2018-09-02T07:02:58.867Z,13.40
2018-09-02T07:05:27.401Z,14.67
2018-09-02T07:07:56.174Z,12.43
2018-09-02T07:10:24.698Z,14.87
2018-09-02T07:12:53.427Z,14.63
2018-09-02T07:15:22.177Z,12.57
2018-09-02T07:17:51.080Z,11.00
2018-09-02T07:20:19.607Z,14.13
2018-09-02T07:22:48.599Z,15.73
2018-09-02T07:25:17.125Z,12.13
2018-09-02T07:27:45.640Z,18.87
2018-09-02T07:30:14.550Z,17.77
2018-09-02T07:32:43.405Z,18.30
2018-09-02T07:35:11.922Z,16.27
2018-09-02T07:37:40.937Z,19.60
2018-09-02T07:40:09.460Z,16.67
2018-09-02T07:42:37.959Z,17.80
2018-09-02T07:45:07.586Z,16.87
2018-09-02T07:47:36.152Z,17.23
2018-09-02T07:50:04.965Z,18.80
2018-09-02T07:52:33.724Z,23.67
2018-09-02T07:55:02.240Z,22.87
2018-09-02T07:57:30.800Z,19.10
2018-09-02T07:59:59.367Z,19.83
2018-09-02T08:02:28.054Z,20.83
2018-09-02T08:04:56.701Z,20.00
2018-09-02T08:07:25.579Z,22.77
2018-09-02T08:09:54.481Z,24.67
2018-09-02T08:12:23.112Z,22.80
2018-09-02T08:14:51.670Z,23.57
2018-09-02T08:17:20.387Z,23.97
2018-09-02T08:19:49.057Z,21.17
2018-09-02T08:22:19.424Z,22.17
2018-09-02T08:24:48.806Z,14.67
2018-09-02T08:27:17.399Z,14.83
2018-09-02T08:29:45.951Z,16.10
2018-09-02T08:32:14.507Z,12.87
2018-09-02T08:34:44.401Z,16.00
2018-09-02T08:37:13.059Z,16.37
2018-09-02T08:39:41.911Z,12.40
2018-09-02T08:42:10.434Z,12.27
2018-09-02T08:44:38.906Z,10.10
2018-09-02T08:47:07.431Z,11.87
2018-09-02T08:49:36.181Z,12.73
2018-09-02T08:52:05.013Z,11.10
2018-09-02T08:54:33.669Z,11.63
2018-09-02T08:57:02.534Z,11.43
2018-09-02T08:59:31.182Z,10.47
2018-09-02T09:01:59.758Z,11.40
2018-09-02T09:04:28.339Z,8.90
2018-09-02T09:06:56.933Z,10.63
2018-09-02T09:09:25.487Z,11.27
2018-09-02T09:11:55.329Z,10.70
2018-09-02T09:14:23.875Z,12.43
2018-09-02T09:16:52.640Z,10.23
2018-09-02T09:19:21.406Z,10.43
2018-09-02T09:21:50.270Z,9.53
2018-09-02T09:24:20.326Z,12.53
2018-09-02T09:26:48.907Z,10.90
2018-09-02T09:29:17.533Z,11.97
2018-09-02T09:31:48.536Z,8.43
2018-09-02T09:34:17.389Z,9.37
2018-09-02T09:36:45.950Z,9.60
2018-09-02T09:39:14.718Z,9.47
2018-09-02T09:41:43.325Z,10.63
2018-09-02T09:44:13.199Z,10.03
2018-09-02T09:46:42.773Z,8.33
2018-09-02T09:49:11.536Z,9.90
2018-09-02T09:51:41.877Z,8.83
2018-09-02T09:54:11.015Z,7.63
2018-09-02T09:56:39.638Z,9.80
2018-09-02T09:59:08.475Z,7.77
2018-09-02T10:01:37.436Z,8.30
2018-09-02T10:04:06.015Z,7.87
2018-09-02T10:06:35.231Z,7.33
2018-09-02T10:09:05.227Z,9.83
2018-09-02T10:11:34.412Z,8.53
2018-09-02T10:14:03.118Z,7.80
2018-09-02T10:16:31.732Z,10.50
2018-09-02T10:19:00.640Z,8.60
2018-09-02T10:21:30.296Z,7.90
2018-09-02T10:23:59.200Z,7.37
2018-09-02T10:26:27.920Z,9.90
2018-09-02T10:28:58.942Z,7.90
2018-09-02T10:31:27.832Z,10.20
2018-09-02T10:33:57.011Z,8.70
2018-09-02T10:36:25.654Z,7.83
2018-09-02T10:38:54.317Z,7.90
2018-09-02T10:41:23.080Z,8.67
2018-09-02T10:43:51.946Z,9.43
2018-09-02T10:46:20.474Z,7.17
2018-09-02T10:48:49.465Z,10.90
2018-09-02T10:51:18.261Z,7.60
2018-09-02T10:53:47.003Z,7.50
2018-09-02T10:56:17.172Z,8.73
2018-09-02T10:58:45.794Z,7.07
2018-09-02T11:01:14.511Z,8.40
2018-09-02T11:03:43.873Z,8.10
2018-09-02T11:06:12.719Z,6.73
2018-09-02T11:08:42.528Z,6.43
2018-09-02T11:11:11.328Z,7.07
2018-09-02T11:13:40.341Z,8.57
2018-09-02T11:16:09.384Z,6.63
2018-09-02T11:18:38.463Z,6.90
2018-09-02T11:21:07.314Z,7.63
2018-09-02T11:23:35.920Z,8.00
2018-09-02T11:26:06.445Z,7.43
2018-09-02T11:28:35.763Z,5.90
2018-09-02T11:31:05.193Z,5.33
2018-09-02T11:33:35.053Z,8.87
2018-09-02T11:36:05.635Z,6.33
2018-09-02T11:38:34.246Z,8.37
2018-09-02T11:41:03.592Z,6.50
2018-09-02T11:43:32.172Z,7.03
2018-09-02T11:46:02.201Z,7.47
2018-09-02T11:48:30.845Z,8.23
2018-09-02T11:50:59.539Z,7.13
2018-09-02T11:53:28.035Z,8.97
2018-09-02T11:55:56.589Z,8.77
2018-09-02T11:58:25.492Z,7.17
2018-09-02T12:00:54.059Z,7.57
2018-09-02T12:03:22.954Z,6.77
2018-09-02T12:05:51.880Z,6.80
2018-09-02T12:08:20.680Z,6.47
2018-09-02T12:10:49.693Z,8.13
2018-09-02T12:13:18.554Z,6.53
2018-09-02T12:15:47.341Z,7.97
2018-09-02T12:18:16.667Z,8.17
2018-09-02T12:20:45.250Z,6.57
2018-09-02T12:23:14.266Z,9.00
2018-09-02T12:25:43.073Z,6.70
2018-09-02T12:28:13.596Z,7.67
2018-09-02T12:30:42.808Z,9.93
2018-09-02T12:33:11.670Z,6.60
2018-09-02T12:35:40.256Z,8.40
2018-09-02T12:38:08.953Z,7.93
2018-09-02T12:40:39.366Z,8.93
2018-09-02T12:43:08.085Z,7.40
2018-09-02T12:45:36.765Z,5.50
2018-09-02T12:48:05.634Z,8.17
2018-09-02T12:50:34.942Z,7.10
2018-09-02T12:53:03.683Z,8.37
2018-09-02T12:55:32.456Z,8.60
2018-09-02T12:58:01.613Z,5.63
2018-09-02T13:00:32.606Z,7.40
2018-09-02T13:03:01.804Z,6.50
2018-09-02T13:05:30.475Z,6.23
2018-09-02T13:07:59.046Z,6.93
2018-09-02T13:10:28.959Z,7.47
2018-09-02T13:12:57.583Z,8.13
2018-09-02T13:15:26.478Z,7.40
2018-09-02T13:17:56.301Z,9.17
2018-09-02T13:20:25.162Z,8.27
2018-09-02T13:22:54.145Z,6.30
2018-09-02T13:25:24.296Z,6.97
2018-09-02T13:27:53.848Z,6.10
2018-09-02T13:30:23.516Z,5.70
2018-09-02T13:32:52.771Z,7.03
2018-09-02T13:35:22.532Z,7.17
2018-09-02T13:37:51.045Z,10.77
2018-09-02T13:40:19.702Z,8.57
2018-09-02T13:42:49.153Z,8.03
2018-09-02T13:45:17.911Z,6.03
2018-09-02T13:47:47.883Z,6.13
2018-09-02T13:50:16.623Z,8.67
2018-09-02T13:52:46.915Z,8.40
2018-09-02T13:55:15.563Z,7.63
2018-09-02T13:57:46.197Z,7.27
2018-09-02T14:00:15.191Z,7.00
2018-09-02T14:02:45.199Z,8.57
2018-09-02T14:05:15.789Z,6.43
2018-09-02T14:07:44.689Z,8.13
2018-09-02T14:10:15.160Z,8.23
2018-09-02T14:12:47.131Z,5.43
2018-09-02T14:15:17.929Z,6.30
2018-09-02T14:17:48.228Z,5.73
2018-09-02T14:20:18.032Z,7.43
2018-09-02T14:22:47.227Z,10.93
2018-09-02T14:25:16.987Z,8.73
2018-09-02T14:27:45.831Z,7.23
2018-09-02T14:30:16.291Z,6.37
2018-09-02T14:32:45.414Z,6.60
2018-09-02T14:35:15.026Z,6.00
2018-09-02T14:37:43.855Z,8.00
2018-09-02T14:40:12.559Z,7.00
2018-09-02T14:42:43.386Z,7.40
2018-09-02T14:45:16.838Z,7.93
2018-09-02T14:47:46.714Z,7.23
2018-09-02T14:50:18.282Z,6.37
2018-09-02T14:52:49.435Z,6.43
2018-09-02T14:55:21.008Z,6.00
2018-09-02T14:57:52.079Z,6.90
2018-09-02T15:00:20.731Z,7.90
2018-09-02T15:02:49.793Z,7.13
2018-09-02T15:05:19.216Z,8.03
2018-09-02T15:07:47.830Z,6.27
2018-09-02T15:10:17.440Z,6.57
2018-09-02T15:12:47.905Z,6.67
2018-09-02T15:15:16.789Z,6.10
2018-09-02T15:17:47.230Z,8.17
2018-09-02T15:20:18.578Z,6.17
2018-09-02T15:22:48.431Z,8.07
2018-09-02T15:25:19.434Z,7.80
2018-09-02T15:27:49.586Z,6.50
2018-09-02T15:30:20.635Z,6.30
2018-09-02T15:32:49.686Z,9.10
2018-09-02T15:35:18.962Z,6.50
2018-09-02T15:37:48.100Z,5.57
2018-09-02T15:40:17.146Z,5.13
2018-09-02T15:42:46.887Z,5.77
2018-09-02T15:45:16.797Z,9.10
2018-09-02T15:47:46.576Z,6.77
2018-09-02T15:50:16.351Z,4.67
2018-09-02T15:52:44.971Z,7.70
2018-09-02T15:55:15.027Z,6.40
2018-09-02T15:57:44.190Z,6.90
2018-09-02T16:00:14.673Z,6.73
2018-09-02T16:02:43.662Z,5.80
2018-09-02T16:05:12.252Z,7.60
2018-09-02T16:07:41.045Z,5.77
2018-09-02T16:10:09.513Z,5.37
2018-09-02T16:12:38.160Z,6.20
2018-09-02T16:15:07.124Z,6.27
2018-09-02T16:17:36.310Z,5.73
2018-09-02T16:20:05.658Z,6.43
2018-09-02T16:22:34.733Z,6.10
2018-09-02T16:25:03.272Z,6.13
2018-09-02T16:27:31.994Z,6.67
2018-09-02T16:30:00.994Z,5.67
2018-09-02T16:32:32.752Z,6.43
2018-09-02T16:35:02.976Z,6.37
2018-09-02T16:37:31.797Z,7.33
2018-09-02T16:40:00.638Z,8.03
2018-09-02T16:42:30.222Z,5.37
2018-09-02T16:45:00.093Z,6.50
2018-09-02T16:47:28.589Z,5.73
2018-09-02T16:49:57.226Z,6.80
2018-09-02T16:52:26.034Z,5.70
2018-09-02T16:54:55.162Z,5.50
2018-09-02T16:57:24.606Z,7.20
2018-09-02T16:59:53.726Z,7.37
2018-09-02T17:02:22.809Z,6.77
2018-09-02T17:04:54.019Z,5.10
2018-09-02T17:07:22.498Z,4.00
2018-09-02T17:09:51.122Z,6.07
2018-09-02T17:12:20.107Z,6.63
2018-09-02T17:14:49.425Z,4.00
2018-09-02T17:17:18.859Z,4.67
2018-09-02T17:19:50.396Z,5.23
2018-09-02T17:22:19.089Z,5.20
2018-09-02T17:24:47.865Z,3.93
2018-09-02T17:27:16.413Z,6.03
2018-09-02T17:29:45.049Z,4.93
2018-09-02T17:32:15.926Z,7.37
2018-09-02T17:34:44.764Z,5.40
2018-09-02T17:37:13.503Z,5.50
2018-09-02T17:39:43.014Z,4.87
2018-09-02T17:42:11.580Z,4.47
2018-09-02T17:44:40.202Z,5.93
2018-09-02T17:47:08.756Z,4.77
2018-09-02T17:49:37.558Z,4.83
2018-09-02T17:52:06.423Z,5.87
2018-09-02T17:54:35.294Z,5.47
2018-09-02T17:57:04.065Z,5.00
2018-09-02T17:59:33.403Z,4.47
2018-09-02T18:02:02.469Z,5.93
2018-09-02T18:04:31.591Z,6.10
2018-09-02T18:07:01.069Z,6.60
2018-09-02T18:09:30.545Z,3.97
2018-09-02T18:11:59.709Z,6.37
2018-09-02T18:14:29.497Z,6.33
2018-09-02T18:16:58.167Z,7.10
2018-09-02T18:19:27.252Z,5.60
2018-09-02T18:21:56.794Z,7.10
2018-09-02T18:24:25.585Z,7.47
2018-09-02T18:26:56.695Z,6.53
2018-09-02T18:29:25.269Z,6.10
2018-09-02T18:31:54.400Z,7.40
2018-09-02T18:34:23.047Z,6.30
2018-09-02T18:36:52.270Z,8.03
2018-09-02T18:39:21.621Z,8.83
2018-09-02T18:41:50.321Z,5.73
2018-09-02T18:44:18.933Z,6.43
2018-09-02T18:46:47.788Z,6.73
2018-09-02T18:49:16.852Z,6.37
2018-09-02T18:51:45.484Z,6.03
2018-09-02T18:54:14.107Z,6.07
2018-09-02T18:56:42.888Z,5.80
2018-09-02T18:59:11.588Z,6.83
2018-09-02T19:01:40.150Z,6.60
2018-09-02T19:04:08.810Z,7.97
2018-09-02T19:06:37.382Z,7.33
2018-09-02T19:09:08.510Z,6.37
2018-09-02T19:11:37.514Z,6.73
2018-09-02T19:14:06.297Z,6.37
2018-09-02T19:16:35.753Z,6.70
2018-09-02T19:19:05.201Z,6.20
2018-09-02T19:21:33.910Z,6.70
2018-09-02T19:24:02.497Z,6.40
2018-09-02T19:26:30.999Z,6.03
2018-09-02T19:29:00.412Z,7.40
2018-09-02T19:31:29.004Z,8.50
2018-09-02T19:33:57.999Z,8.07
2018-09-02T19:36:27.744Z,6.93
2018-09-02T19:38:56.485Z,9.67
2018-09-02T19:41:25.221Z,6.93
2018-09-02T19:43:55.055Z,7.30
2018-09-02T19:46:23.781Z,7.73
2018-09-02T19:48:52.433Z,6.20
2018-09-02T19:51:20.976Z,6.27
2018-09-02T19:53:49.940Z,7.33
2018-09-02T19:56:18.729Z,7.70
2018-09-02T19:58:47.625Z,7.57
2018-09-02T20:01:16.285Z,8.77
2018-09-02T20:03:44.859Z,8.13
2018-09-02T20:06:13.984Z,9.10
2018-09-02T20:08:42.591Z,7.60
2018-09-02T20:11:11.255Z,7.73
2018-09-02T20:13:39.741Z,8.93
2018-09-02T20:16:08.398Z,6.20
2018-09-02T20:18:37.012Z,8.63
2018-09-02T20:21:05.665Z,8.53
2018-09-02T20:23:34.193Z,6.00
2018-09-02T20:26:02.715Z,9.33
2018-09-02T20:28:31.593Z,7.47
2018-09-02T20:31:00.157Z,7.63
2018-09-02T20:33:28.910Z,6.73
2018-09-02T20:35:57.881Z,9.10
2018-09-02T20:38:26.599Z,6.83
2018-09-02T20:40:55.105Z,7.77
2018-09-02T20:43:23.680Z,6.80
2018-09-02T20:45:52.506Z,9.93
2018-09-02T20:48:21.090Z,8.43
2018-09-02T20:50:49.728Z,8.33
2018-09-02T20:53:18.383Z,8.50
2018-09-02T20:55:47.601Z,6.77
2018-09-02T20:58:16.668Z,6.40
2018-09-02T21:00:45.205Z,7.57
2018-09-02T21:03:14.747Z,9.53
2018-09-02T21:05:44.832Z,7.00
2018-09-02T21:08:14.412Z,6.80
2018-09-02T21:10:43.462Z,6.93
2018-09-02T21:13:14.118Z,7.27
2018-09-02T21:15:42.690Z,7.17
2018-09-02T21:18:12.697Z,10.47
2018-09-02T21:20:41.302Z,9.43
2018-09-02T21:23:10.012Z,7.60
2018-09-02T21:25:38.622Z,9.53
2018-09-02T21:28:07.203Z,7.70
2018-09-02T21:30:35.765Z,6.90
2018-09-02T21:33:04.568Z,7.90
2018-09-02T21:35:33.082Z,11.03
2018-09-02T21:38:01.995Z,7.80
2018-09-02T21:40:30.650Z,8.50
2018-09-02T21:42:59.158Z,6.90
2018-09-02T21:45:27.661Z,8.63
2018-09-02T21:47:56.268Z,9.77
2018-09-02T21:50:24.919Z,7.93
2018-09-02T21:52:53.658Z,9.43
2018-09-02T21:55:22.272Z,7.57
2018-09-02T21:57:50.784Z,7.47
2018-09-02T22:00:19.354Z,9.03
2018-09-02T22:02:47.833Z,8.70
2018-09-02T22:05:16.725Z,7.10
2018-09-02T22:07:45.325Z,7.60
2018-09-02T22:10:13.877Z,8.47
2018-09-02T22:12:42.419Z,7.17
2018-09-02T22:15:11.527Z,8.57
2018-09-02T22:17:40.140Z,8.47
2018-09-02T22:20:08.897Z,10.10
2018-09-02T22:22:37.411Z,8.30
2018-09-02T22:25:07.079Z,9.70
2018-09-02T22:27:35.639Z,7.63
2018-09-02T22:30:04.487Z,7.30
2018-09-02T22:32:33.065Z,8.13
2018-09-02T22:35:01.639Z,7.33
2018-09-02T22:37:30.506Z,7.33
2018-09-02T22:39:59.349Z,8.57
2018-09-02T22:42:27.953Z,6.30
2018-09-02T22:44:56.607Z,7.67
2018-09-02T22:47:25.317Z,7.63
2018-09-02T22:49:54.657Z,6.27
2018-09-02T22:52:23.393Z,9.53
2018-09-02T22:54:52.064Z,8.37
2018-09-02T22:57:20.828Z,9.33
2018-09-02T22:59:49.531Z,6.93
2018-09-02T23:02:18.517Z,8.27
2018-09-02T23:04:47.567Z,10.77
2018-09-02T23:07:16.138Z,7.30
2018-09-02T23:09:45.104Z,6.73
2018-09-02T23:12:14.215Z,7.20
2018-09-02T23:14:42.842Z,5.70
2018-09-02T23:17:11.520Z,7.03
2018-09-02T23:19:40.210Z,7.37
2018-09-02T23:22:09.719Z,5.13
2018-09-02T23:24:38.276Z,5.93
2018-09-02T23:27:06.838Z,6.67
2018-09-02T23:29:35.370Z,7.03
2018-09-02T23:32:03.957Z,9.20
2018-09-02T23:34:32.728Z,6.73
2018-09-02T23:37:01.220Z,7.53
2018-09-02T23:39:29.760Z,5.87
2018-09-02T23:41:58.292Z,5.80
2018-09-02T23:44:26.882Z,5.77
2018-09-02T23:46:55.495Z,6.33
2018-09-02T23:49:24.033Z,6.27
2018-09-02T23:51:52.764Z,6.43
2018-09-02T23:54:21.548Z,5.67
2018-09-02T23:56:50.542Z,5.50
2018-09-02T23:59:19.534Z,5.87
